Terminal Aerodrome Forecast
Issued by NWS Caribou, ME

Home | Current Version | Previous Version | Text Only | Print | Product List | Glossary On
Versions: 1 2 3 4 5 6 7 8 9 10 11 12 13 14 15 16 17
620
FTUS41 KCAR 222339
TAFBGR
TAF
KBGR 222339Z 2300/2324 29004KT P6SM SCT110 BKN250
     FM230400 VRB03KT P6SM BKN080
     FM231200 VRB03KT P6SM BKN035
     FM231800 18011G19KT 5SM BR VCSH OVC020
     FM232300 18009KT 3SM BR VCSH OVC015=

USA.gov is the U.S. government's official web portal to all federal, state and local government web resources and services.